Evanston-Uinta County Airport-Burns Field


Codes: KEVW/EVW
Name: Evanston-Uinta County Airport-Burns Field
City: Evanston
Country: United States
Elevation: 7143 ft.

Photos at Evanston-Uinta County Airport-Burns Field


   Photos courtesy of SpottingLog. You can add your own sightings and photos by signing up for a free trial today.



No photos found.

Weather at Evanston-Uinta County Airport-Burns Field


Time (UTC)DescriptionTempratureWindCloud coverageVisibilityPressureHumidity
15-Apr-2024 18:00Light Rain4°C11 mph, W99%5422m1008hPa73%
15-Apr-2024 21:00Light Rain5°C16 mph, W99%10000m1008hPa70%
16-Apr-2024 00:00Overcast Clouds3°C16 mph, W100%10000m1010hPa82%
16-Apr-2024 03:00Overcast Clouds2°C11 mph, SW100%10000m1013hPa93%
16-Apr-2024 06:00Overcast Clouds2°C13 mph, SW100%720m1014hPa97%
16-Apr-2024 09:00Light Snow2°C13 mph, SW100%596m1015hPa96%
16-Apr-2024 12:00Overcast Clouds2°C13 mph, SW98%10000m1017hPa87%
16-Apr-2024 15:00Broken Clouds3°C13 mph, SW71%10000m1017hPa75%
16-Apr-2024 18:00Broken Clouds6°C16 mph, SW72%10000m1017hPa63%
16-Apr-2024 21:00Overcast Clouds9°C18 mph, W87%10000m1015hPa47%
17-Apr-2024 00:00Overcast Clouds8°C16 mph, W93%10000m1015hPa48%
17-Apr-2024 03:00Overcast Clouds5°C7 mph, SW99%10000m1016hPa62%
17-Apr-2024 06:00Overcast Clouds4°C7 mph, SW98%10000m1016hPa65%
17-Apr-2024 09:00Few Clouds2°C7 mph, SW20%10000m1015hPa68%
17-Apr-2024 12:00Broken Clouds2°C9 mph, SW59%10000m1015hPa73%
17-Apr-2024 15:00Overcast Clouds6°C13 mph, SW86%10000m1014hPa62%
17-Apr-2024 18:00Light Rain8°C20 mph, W89%10000m1013hPa54%
17-Apr-2024 21:00Light Rain10°C22 mph, W99%10000m1012hPa46%
18-Apr-2024 00:00Overcast Clouds9°C18 mph, W90%10000m1012hPa46%
18-Apr-2024 03:00Broken Clouds4°C7 mph, NW58%10000m1015hPa69%
18-Apr-2024 06:00Broken Clouds1°C2 mph, NW68%10000m1017hPa79%
18-Apr-2024 09:00Overcast Clouds0°C2 mph, NW100%10000m1018hPa75%
18-Apr-2024 12:00Overcast Clouds-1°C4 mph, N100%10000m1021hPa58%
18-Apr-2024 15:00Scattered Clouds1°C4 mph, NW29%10000m1020hPa36%
18-Apr-2024 18:00Few Clouds7°C13 mph, W18%10000m1016hPa29%
18-Apr-2024 21:00Few Clouds9°C16 mph, W20%10000m1013hPa36%
19-Apr-2024 00:00Broken Clouds8°C13 mph, W51%10000m1013hPa45%
19-Apr-2024 03:00Overcast Clouds4°C4 mph, NW100%10000m1014hPa59%
19-Apr-2024 06:00Overcast Clouds2°C4 mph, NE100%10000m1015hPa59%
19-Apr-2024 09:00Overcast Clouds1°C4 mph, NE100%10000m1015hPa57%
19-Apr-2024 12:00Overcast Clouds-0°C7 mph, NE100%10000m1018hPa63%
19-Apr-2024 15:00Overcast Clouds2°C9 mph, NE100%10000m1017hPa58%
19-Apr-2024 18:00Overcast Clouds6°C4 mph, NE100%10000m1014hPa50%
19-Apr-2024 21:00Overcast Clouds10°C7 mph, SW100%10000m1011hPa40%
20-Apr-2024 00:00Overcast Clouds10°C11 mph, W100%10000m1011hPa42%
20-Apr-2024 03:00Overcast Clouds6°C7 mph, N100%10000m1013hPa58%
20-Apr-2024 06:00Overcast Clouds4°C4 mph, N99%10000m1014hPa58%
20-Apr-2024 09:00Overcast Clouds2°C7 mph, E96%10000m1017hPa66%
20-Apr-2024 12:00Broken Clouds-1°C4 mph, NE67%10000m1020hPa76%
20-Apr-2024 15:00Few Clouds3°C2 mph, NE16%10000m1019hPa63%